sensor_id;sensor_type;location;lat;lon;timestamp;P1;durP1;ratioP1;P2;durP2;ratioP2
55800;SDS011;41730;51.960;20.158;2022-12-08T00:02:09;5.80;;;3.00;;
55800;SDS011;41730;51.960;20.158;2022-12-08T00:05:08;8.90;;;3.40;;
55800;SDS011;41730;51.960;20.158;2022-12-08T00:08:00;7.10;;;3.00;;
55800;SDS011;41730;51.960;20.158;2022-12-08T00:10:49;5.80;;;3.00;;
55800;SDS011;41730;51.960;20.158;2022-12-08T00:13:21;7.40;;;3.40;;
55800;SDS011;41730;51.960;20.158;2022-12-08T00:15:54;6.40;;;3.60;;
55800;SDS011;41730;51.960;20.158;2022-12-08T00:18:30;6.40;;;3.20;;
55800;SDS011;41730;51.960;20.158;2022-12-08T00:21:01;5.90;;;3.00;;
55800;SDS011;41730;51.960;20.158;2022-12-08T00:23:42;5.20;;;2.90;;
55800;SDS011;41730;51.960;20.158;2022-12-08T00:26:14;7.10;;;3.30;;
55800;SDS011;41730;51.960;20.158;2022-12-08T00:28:46;5.70;;;3.40;;
55800;SDS011;41730;51.960;20.158;2022-12-08T00:31:20;8.30;;;3.90;;
55800;SDS011;41730;51.960;20.158;2022-12-08T00:33:52;7.30;;;4.00;;
55800;SDS011;41730;51.960;20.158;2022-12-08T00:36:42;9.00;;;3.50;;
55800;SDS011;41730;51.960;20.158;2022-12-08T00:39:34;6.70;;;3.50;;
55800;SDS011;41730;51.960;20.158;2022-12-08T00:42:27;6.20;;;3.10;;
55800;SDS011;41730;51.960;20.158;2022-12-08T00:48:11;7.10;;;3.40;;
55800;SDS011;41730;51.960;20.158;2022-12-08T00:50:43;8.00;;;4.00;;
55800;SDS011;41730;51.960;20.158;2022-12-08T00:53:14;10.10;;;4.90;;
55800;SDS011;41730;51.960;20.158;2022-12-08T00:55:46;8.60;;;5.00;;
55800;SDS011;41730;51.960;20.158;2022-12-08T00:58:21;13.60;;;5.80;;
55800;SDS011;41730;51.960;20.158;2022-12-08T01:01:16;9.90;;;4.80;;
55800;SDS011;41730;51.960;20.158;2022-12-08T01:04:13;8.00;;;4.30;;
55800;SDS011;41730;51.960;20.158;2022-12-08T01:06:52;7.10;;;4.10;;
55800;SDS011;41730;51.960;20.158;2022-12-08T01:09:49;9.30;;;4.30;;
55800;SDS011;41730;51.960;20.158;2022-12-08T01:12:27;7.10;;;3.80;;
55800;SDS011;41730;51.960;20.158;2022-12-08T01:14:58;9.30;;;3.80;;
55800;SDS011;41730;51.960;20.158;2022-12-08T01:17:30;6.40;;;3.20;;
55800;SDS011;41730;51.960;20.158;2022-12-08T01:20:02;7.00;;;3.80;;
55800;SDS011;41730;51.960;20.158;2022-12-08T01:22:36;6.70;;;3.60;;
55800;SDS011;41730;51.960;20.158;2022-12-08T01:27:52;6.90;;;3.80;;
55800;SDS011;41730;51.960;20.158;2022-12-08T01:30:26;8.20;;;4.00;;
55800;SDS011;41730;51.960;20.158;2022-12-08T01:33:28;6.40;;;3.70;;
55800;SDS011;41730;51.960;20.158;2022-12-08T01:36:03;9.00;;;3.30;;
55800;SDS011;41730;51.960;20.158;2022-12-08T01:41:08;6.90;;;3.00;;
55800;SDS011;41730;51.960;20.158;2022-12-08T01:43:54;6.00;;;3.10;;
55800;SDS011;41730;51.960;20.158;2022-12-08T01:46:31;7.70;;;3.20;;
55800;SDS011;41730;51.960;20.158;2022-12-08T01:49:04;6.90;;;4.00;;
55800;SDS011;41730;51.960;20.158;2022-12-08T01:51:41;8.00;;;3.40;;
55800;SDS011;41730;51.960;20.158;2022-12-08T01:54:17;7.30;;;3.50;;
55800;SDS011;41730;51.960;20.158;2022-12-08T01:56:58;7.50;;;4.00;;
55800;SDS011;41730;51.960;20.158;2022-12-08T01:59:32;7.20;;;3.90;;
55800;SDS011;41730;51.960;20.158;2022-12-08T02:02:10;7.90;;;4.10;;
55800;SDS011;41730;51.960;20.158;2022-12-08T02:04:45;6.30;;;3.50;;
55800;SDS011;41730;51.960;20.158;2022-12-08T02:07:17;8.80;;;4.20;;
55800;SDS011;41730;51.960;20.158;2022-12-08T02:09:50;7.70;;;3.90;;
55800;SDS011;41730;51.960;20.158;2022-12-08T02:12:25;8.00;;;4.00;;
55800;SDS011;41730;51.960;20.158;2022-12-08T02:14:56;8.50;;;4.30;;
55800;SDS011;41730;51.960;20.158;2022-12-08T02:17:35;7.10;;;4.30;;
55800;SDS011;41730;51.960;20.158;2022-12-08T02:20:25;8.00;;;4.30;;
55800;SDS011;41730;51.960;20.158;2022-12-08T02:23:09;6.40;;;4.40;;
55800;SDS011;41730;51.960;20.158;2022-12-08T02:29:04;7.20;;;5.00;;
55800;SDS011;41730;51.960;20.158;2022-12-08T02:31:55;8.90;;;4.60;;
55800;SDS011;41730;51.960;20.158;2022-12-08T02:34:50;7.90;;;4.80;;
55800;SDS011;41730;51.960;20.158;2022-12-08T02:37:30;8.60;;;4.80;;
55800;SDS011;41730;51.960;20.158;2022-12-08T02:40:10;7.80;;;5.70;;
55800;SDS011;41730;51.960;20.158;2022-12-08T02:42:48;8.50;;;5.00;;
55800;SDS011;41730;51.960;20.158;2022-12-08T02:45:27;10.00;;;5.00;;
55800;SDS011;41730;51.960;20.158;2022-12-08T02:48:02;12.50;;;7.10;;
55800;SDS011;41730;51.960;20.158;2022-12-08T02:50:34;12.50;;;6.50;;
55800;SDS011;41730;51.960;20.158;2022-12-08T02:53:06;12.40;;;7.00;;
55800;SDS011;41730;51.960;20.158;2022-12-08T02:55:39;15.10;;;7.10;;
55800;SDS011;41730;51.960;20.158;2022-12-08T02:58:28;12.90;;;6.30;;
55800;SDS011;41730;51.960;20.158;2022-12-08T03:01:29;14.00;;;7.20;;
55800;SDS011;41730;51.960;20.158;2022-12-08T03:04:13;13.50;;;7.10;;
55800;SDS011;41730;51.960;20.158;2022-12-08T03:06:51;13.40;;;7.30;;
55800;SDS011;41730;51.960;20.158;2022-12-08T03:09:33;13.10;;;7.10;;
55800;SDS011;41730;51.960;20.158;2022-12-08T03:12:11;13.30;;;7.50;;
55800;SDS011;41730;51.960;20.158;2022-12-08T03:14:47;12.70;;;7.80;;
55800;SDS011;41730;51.960;20.158;2022-12-08T03:17:22;13.60;;;8.20;;
55800;SDS011;41730;51.960;20.158;2022-12-08T03:19:58;17.70;;;8.10;;
55800;SDS011;41730;51.960;20.158;2022-12-08T03:22:55;13.40;;;8.50;;
55800;SDS011;41730;51.960;20.158;2022-12-08T03:25:49;15.30;;;7.60;;
55800;SDS011;41730;51.960;20.158;2022-12-08T03:28:25;13.10;;;7.60;;
55800;SDS011;41730;51.960;20.158;2022-12-08T03:30:57;12.50;;;8.10;;
55800;SDS011;41730;51.960;20.158;2022-12-08T03:33:32;13.70;;;8.10;;
55800;SDS011;41730;51.960;20.158;2022-12-08T03:36:11;13.90;;;8.70;;
55800;SDS011;41730;51.960;20.158;2022-12-08T03:38:44;13.40;;;8.30;;
55800;SDS011;41730;51.960;20.158;2022-12-08T03:41:19;14.40;;;7.90;;
55800;SDS011;41730;51.960;20.158;2022-12-08T03:43:53;13.30;;;8.00;;
55800;SDS011;41730;51.960;20.158;2022-12-08T03:46:28;14.80;;;8.00;;
55800;SDS011;41730;51.960;20.158;2022-12-08T03:49:16;14.70;;;7.90;;
55800;SDS011;41730;51.960;20.158;2022-12-08T03:51:58;14.50;;;8.30;;
55800;SDS011;41730;51.960;20.158;2022-12-08T03:54:29;13.80;;;7.20;;
55800;SDS011;41730;51.960;20.158;2022-12-08T03:57:02;17.50;;;8.10;;
55800;SDS011;41730;51.960;20.158;2022-12-08T03:59:34;15.00;;;7.80;;
55800;SDS011;41730;51.960;20.158;2022-12-08T04:02:06;15.70;;;7.90;;
55800;SDS011;41730;51.960;20.158;2022-12-08T04:04:37;13.60;;;7.50;;
55800;SDS011;41730;51.960;20.158;2022-12-08T04:07:09;13.00;;;7.90;;
55800;SDS011;41730;51.960;20.158;2022-12-08T04:09:43;13.60;;;6.80;;
55800;SDS011;41730;51.960;20.158;2022-12-08T04:12:14;14.60;;;8.30;;
55800;SDS011;41730;51.960;20.158;2022-12-08T04:14:45;15.10;;;8.40;;
55800;SDS011;41730;51.960;20.158;2022-12-08T04:17:17;16.80;;;8.30;;
55800;SDS011;41730;51.960;20.158;2022-12-08T04:19:50;16.00;;;8.20;;
55800;SDS011;41730;51.960;20.158;2022-12-08T04:22:26;15.90;;;7.80;;
55800;SDS011;41730;51.960;20.158;2022-12-08T04:25:03;14.20;;;7.40;;
55800;SDS011;41730;51.960;20.158;2022-12-08T04:27:35;15.20;;;8.30;;
55800;SDS011;41730;51.960;20.158;2022-12-08T04:34:12;22.10;;;8.60;;
55800;SDS011;41730;51.960;20.158;2022-12-08T04:37:50;15.60;;;7.80;;
55800;SDS011;41730;51.960;20.158;2022-12-08T04:40:24;16.20;;;8.40;;
55800;SDS011;41730;51.960;20.158;2022-12-08T04:42:55;16.30;;;8.60;;
55800;SDS011;41730;51.960;20.158;2022-12-08T04:45:29;15.80;;;7.60;;
55800;SDS011;41730;51.960;20.158;2022-12-08T04:48:15;21.60;;;10.20;;
55800;SDS011;41730;51.960;20.158;2022-12-08T04:50:48;18.30;;;9.30;;
55800;SDS011;41730;51.960;20.158;2022-12-08T04:53:19;17.10;;;9.30;;
55800;SDS011;41730;51.960;20.158;2022-12-08T04:55:53;21.60;;;9.40;;
55800;SDS011;41730;51.960;20.158;2022-12-08T04:58:25;18.90;;;9.80;;
55800;SDS011;41730;51.960;20.158;2022-12-08T05:00:56;18.10;;;8.90;;
55800;SDS011;41730;51.960;20.158;2022-12-08T05:03:28;20.80;;;9.40;;
55800;SDS011;41730;51.960;20.158;2022-12-08T05:06:00;15.30;;;9.00;;
55800;SDS011;41730;51.960;20.158;2022-12-08T05:08:34;16.60;;;8.60;;
55800;SDS011;41730;51.960;20.158;2022-12-08T05:11:06;18.90;;;9.30;;
55800;SDS011;41730;51.960;20.158;2022-12-08T05:13:39;21.60;;;8.90;;
55800;SDS011;41730;51.960;20.158;2022-12-08T05:16:14;16.30;;;8.40;;
55800;SDS011;41730;51.960;20.158;2022-12-08T05:18:50;19.30;;;9.00;;
55800;SDS011;41730;51.960;20.158;2022-12-08T05:21:22;16.10;;;7.90;;
55800;SDS011;41730;51.960;20.158;2022-12-08T05:23:53;18.00;;;8.70;;
55800;SDS011;41730;51.960;20.158;2022-12-08T05:26:27;19.30;;;10.20;;
55800;SDS011;41730;51.960;20.158;2022-12-08T05:28:58;17.20;;;9.40;;
55800;SDS011;41730;51.960;20.158;2022-12-08T05:31:30;20.50;;;10.00;;
55800;SDS011;41730;51.960;20.158;2022-12-08T05:34:02;23.60;;;11.10;;
55800;SDS011;41730;51.960;20.158;2022-12-08T05:36:33;20.70;;;11.80;;
55800;SDS011;41730;51.960;20.158;2022-12-08T05:39:05;22.70;;;11.30;;
55800;SDS011;41730;51.960;20.158;2022-12-08T05:41:38;25.10;;;10.50;;
55800;SDS011;41730;51.960;20.158;2022-12-08T05:44:09;19.90;;;10.30;;
55800;SDS011;41730;51.960;20.158;2022-12-08T05:46:41;19.70;;;9.80;;
55800;SDS011;41730;51.960;20.158;2022-12-08T05:49:15;18.30;;;11.10;;
55800;SDS011;41730;51.960;20.158;2022-12-08T05:51:47;18.50;;;9.70;;
55800;SDS011;41730;51.960;20.158;2022-12-08T05:54:18;17.70;;;10.30;;
55800;SDS011;41730;51.960;20.158;2022-12-08T05:56:52;16.50;;;9.70;;
55800;SDS011;41730;51.960;20.158;2022-12-08T05:59:31;17.10;;;9.90;;
55800;SDS011;41730;51.960;20.158;2022-12-08T06:02:29;24.70;;;11.20;;
55800;SDS011;41730;51.960;20.158;2022-12-08T06:05:07;17.40;;;10.40;;
55800;SDS011;41730;51.960;20.158;2022-12-08T06:07:42;22.50;;;11.70;;
55800;SDS011;41730;51.960;20.158;2022-12-08T06:10:14;21.00;;;10.70;;
55800;SDS011;41730;51.960;20.158;2022-12-08T06:12:45;29.40;;;11.40;;
55800;SDS011;41730;51.960;20.158;2022-12-08T06:15:17;23.60;;;11.30;;
55800;SDS011;41730;51.960;20.158;2022-12-08T06:17:55;26.90;;;12.40;;
55800;SDS011;41730;51.960;20.158;2022-12-08T06:20:26;29.60;;;13.00;;
55800;SDS011;41730;51.960;20.158;2022-12-08T06:22:58;27.20;;;13.60;;
55800;SDS011;41730;51.960;20.158;2022-12-08T06:25:30;31.00;;;12.90;;
55800;SDS011;41730;51.960;20.158;2022-12-08T06:28:02;24.60;;;13.00;;
55800;SDS011;41730;51.960;20.158;2022-12-08T06:30:35;26.60;;;13.30;;
55800;SDS011;41730;51.960;20.158;2022-12-08T06:33:08;21.70;;;11.50;;
55800;SDS011;41730;51.960;20.158;2022-12-08T06:35:39;21.00;;;10.90;;
55800;SDS011;41730;51.960;20.158;2022-12-08T06:38:11;24.30;;;11.60;;
55800;SDS011;41730;51.960;20.158;2022-12-08T06:40:48;18.80;;;10.90;;
55800;SDS011;41730;51.960;20.158;2022-12-08T06:43:23;22.90;;;11.40;;
55800;SDS011;41730;51.960;20.158;2022-12-08T06:45:55;17.30;;;10.90;;
55800;SDS011;41730;51.960;20.158;2022-12-08T06:48:27;19.20;;;10.70;;
55800;SDS011;41730;51.960;20.158;2022-12-08T06:51:05;18.20;;;11.20;;
55800;SDS011;41730;51.960;20.158;2022-12-08T06:53:38;22.90;;;11.90;;
55800;SDS011;41730;51.960;20.158;2022-12-08T06:56:10;24.30;;;14.10;;
55800;SDS011;41730;51.960;20.158;2022-12-08T06:58:42;22.10;;;13.30;;
55800;SDS011;41730;51.960;20.158;2022-12-08T07:01:19;26.20;;;14.80;;
55800;SDS011;41730;51.960;20.158;2022-12-08T07:03:52;35.60;;;17.70;;
55800;SDS011;41730;51.960;20.158;2022-12-08T07:06:24;32.00;;;18.50;;
55800;SDS011;41730;51.960;20.158;2022-12-08T07:09:01;34.00;;;17.00;;
55800;SDS011;41730;51.960;20.158;2022-12-08T07:11:32;29.30;;;15.80;;
55800;SDS011;41730;51.960;20.158;2022-12-08T07:14:09;27.30;;;15.40;;
55800;SDS011;41730;51.960;20.158;2022-12-08T07:16:42;24.60;;;14.40;;
55800;SDS011;41730;51.960;20.158;2022-12-08T07:19:15;26.20;;;13.40;;
55800;SDS011;41730;51.960;20.158;2022-12-08T07:21:46;24.40;;;13.50;;
55800;SDS011;41730;51.960;20.158;2022-12-08T07:24:18;21.00;;;13.00;;
55800;SDS011;41730;51.960;20.158;2022-12-08T07:26:50;24.70;;;12.90;;
55800;SDS011;41730;51.960;20.158;2022-12-08T07:29:21;23.50;;;12.70;;
55800;SDS011;41730;51.960;20.158;2022-12-08T07:31:53;27.20;;;14.50;;
55800;SDS011;41730;51.960;20.158;2022-12-08T07:34:26;26.10;;;14.70;;
55800;SDS011;41730;51.960;20.158;2022-12-08T07:36:58;26.10;;;14.60;;
55800;SDS011;41730;51.960;20.158;2022-12-08T07:39:30;25.30;;;14.00;;
55800;SDS011;41730;51.960;20.158;2022-12-08T07:42:01;24.50;;;14.30;;
55800;SDS011;41730;51.960;20.158;2022-12-08T07:44:35;26.50;;;14.80;;
55800;SDS011;41730;51.960;20.158;2022-12-08T07:47:06;24.20;;;12.90;;
55800;SDS011;41730;51.960;20.158;2022-12-08T07:49:38;27.50;;;15.00;;
55800;SDS011;41730;51.960;20.158;2022-12-08T07:52:09;42.30;;;19.00;;
55800;SDS011;41730;51.960;20.158;2022-12-08T07:54:41;33.90;;;17.60;;
55800;SDS011;41730;51.960;20.158;2022-12-08T07:57:14;29.50;;;15.60;;
55800;SDS011;41730;51.960;20.158;2022-12-08T07:59:45;29.50;;;17.50;;
55800;SDS011;41730;51.960;20.158;2022-12-08T08:02:21;30.50;;;16.60;;
55800;SDS011;41730;51.960;20.158;2022-12-08T08:04:53;31.50;;;17.30;;
55800;SDS011;41730;51.960;20.158;2022-12-08T08:07:25;38.60;;;18.40;;
55800;SDS011;41730;51.960;20.158;2022-12-08T08:09:58;90.40;;;26.80;;
55800;SDS011;41730;51.960;20.158;2022-12-08T08:12:30;55.90;;;24.10;;
55800;SDS011;41730;51.960;20.158;2022-12-08T08:15:02;60.50;;;27.10;;
55800;SDS011;41730;51.960;20.158;2022-12-08T08:17:36;76.30;;;29.50;;
55800;SDS011;41730;51.960;20.158;2022-12-08T08:20:08;53.30;;;25.30;;
55800;SDS011;41730;51.960;20.158;2022-12-08T08:22:41;38.00;;;20.30;;
55800;SDS011;41730;51.960;20.158;2022-12-08T08:25:13;34.10;;;18.40;;
55800;SDS011;41730;51.960;20.158;2022-12-08T08:27:46;39.60;;;19.60;;
55800;SDS011;41730;51.960;20.158;2022-12-08T08:30:18;41.90;;;20.00;;
55800;SDS011;41730;51.960;20.158;2022-12-08T08:32:49;39.40;;;20.30;;
55800;SDS011;41730;51.960;20.158;2022-12-08T08:35:21;38.30;;;20.50;;
55800;SDS011;41730;51.960;20.158;2022-12-08T08:37:53;34.10;;;18.80;;
55800;SDS011;41730;51.960;20.158;2022-12-08T08:40:25;78.10;;;29.80;;
55800;SDS011;41730;51.960;20.158;2022-12-08T08:43:04;97.90;;;33.10;;
55800;SDS011;41730;51.960;20.158;2022-12-08T08:45:36;41.40;;;20.60;;
55800;SDS011;41730;51.960;20.158;2022-12-08T08:48:08;33.90;;;17.60;;
55800;SDS011;41730;51.960;20.158;2022-12-08T08:50:42;32.70;;;17.20;;
55800;SDS011;41730;51.960;20.158;2022-12-08T08:53:13;41.00;;;18.30;;
55800;SDS011;41730;51.960;20.158;2022-12-08T08:55:45;31.80;;;17.20;;
55800;SDS011;41730;51.960;20.158;2022-12-08T08:58:17;36.50;;;18.90;;
55800;SDS011;41730;51.960;20.158;2022-12-08T09:00:49;44.90;;;19.00;;
55800;SDS011;41730;51.960;20.158;2022-12-08T09:03:20;31.90;;;17.30;;
55800;SDS011;41730;51.960;20.158;2022-12-08T09:05:55;31.00;;;17.60;;
55800;SDS011;41730;51.960;20.158;2022-12-08T09:08:27;26.60;;;16.00;;
55800;SDS011;41730;51.960;20.158;2022-12-08T09:10:58;39.60;;;17.30;;
55800;SDS011;41730;51.960;20.158;2022-12-08T09:13:30;31.90;;;16.20;;
55800;SDS011;41730;51.960;20.158;2022-12-08T09:16:02;37.90;;;17.60;;
55800;SDS011;41730;51.960;20.158;2022-12-08T09:18:35;33.50;;;16.70;;
55800;SDS011;41730;51.960;20.158;2022-12-08T09:21:08;27.10;;;17.30;;
55800;SDS011;41730;51.960;20.158;2022-12-08T09:23:43;29.70;;;17.50;;
55800;SDS011;41730;51.960;20.158;2022-12-08T09:26:15;32.80;;;18.30;;
55800;SDS011;41730;51.960;20.158;2022-12-08T09:28:50;29.70;;;18.30;;
55800;SDS011;41730;51.960;20.158;2022-12-08T09:31:25;29.00;;;17.80;;
55800;SDS011;41730;51.960;20.158;2022-12-08T09:33:57;32.30;;;17.90;;
55800;SDS011;41730;51.960;20.158;2022-12-08T09:36:28;37.10;;;19.40;;
55800;SDS011;41730;51.960;20.158;2022-12-08T09:39:01;28.70;;;19.70;;
55800;SDS011;41730;51.960;20.158;2022-12-08T09:41:33;41.00;;;22.20;;
55800;SDS011;41730;51.960;20.158;2022-12-08T09:44:25;112.00;;;40.20;;
55800;SDS011;41730;51.960;20.158;2022-12-08T09:47:20;44.90;;;21.80;;
55800;SDS011;41730;51.960;20.158;2022-12-08T09:52:37;41.60;;;20.90;;
55800;SDS011;41730;51.960;20.158;2022-12-08T09:55:16;35.90;;;20.70;;
55800;SDS011;41730;51.960;20.158;2022-12-08T09:57:56;31.20;;;20.50;;
55800;SDS011;41730;51.960;20.158;2022-12-08T10:00:38;38.00;;;22.80;;
55800;SDS011;41730;51.960;20.158;2022-12-08T10:03:10;33.00;;;19.90;;
55800;SDS011;41730;51.960;20.158;2022-12-08T10:05:46;29.90;;;19.80;;
55800;SDS011;41730;51.960;20.158;2022-12-08T10:08:26;37.90;;;21.20;;
55800;SDS011;41730;51.960;20.158;2022-12-08T10:11:04;31.10;;;20.50;;
55800;SDS011;41730;51.960;20.158;2022-12-08T10:13:44;35.00;;;20.00;;
55800;SDS011;41730;51.960;20.158;2022-12-08T10:16:23;32.80;;;20.00;;
55800;SDS011;41730;51.960;20.158;2022-12-08T10:19:07;36.10;;;20.70;;
55800;SDS011;41730;51.960;20.158;2022-12-08T10:21:42;31.00;;;20.50;;
55800;SDS011;41730;51.960;20.158;2022-12-08T10:24:17;40.70;;;22.60;;
55800;SDS011;41730;51.960;20.158;2022-12-08T10:26:54;32.70;;;20.10;;
55800;SDS011;41730;51.960;20.158;2022-12-08T10:29:27;34.60;;;21.80;;
55800;SDS011;41730;51.960;20.158;2022-12-08T10:31:58;33.30;;;21.70;;
55800;SDS011;41730;51.960;20.158;2022-12-08T10:34:38;37.00;;;22.20;;
55800;SDS011;41730;51.960;20.158;2022-12-08T10:37:30;31.00;;;21.70;;
55800;SDS011;41730;51.960;20.158;2022-12-08T10:40:04;34.50;;;21.90;;
55800;SDS011;41730;51.960;20.158;2022-12-08T10:42:41;43.90;;;24.10;;
55800;SDS011;41730;51.960;20.158;2022-12-08T10:45:21;38.80;;;22.80;;
55800;SDS011;41730;51.960;20.158;2022-12-08T10:47:58;36.10;;;23.10;;
55800;SDS011;41730;51.960;20.158;2022-12-08T10:50:34;41.00;;;23.70;;
55800;SDS011;41730;51.960;20.158;2022-12-08T10:53:14;40.10;;;23.70;;
55800;SDS011;41730;51.960;20.158;2022-12-08T10:55:50;47.70;;;28.00;;
55800;SDS011;41730;51.960;20.158;2022-12-08T10:58:36;48.90;;;28.80;;
55800;SDS011;41730;51.960;20.158;2022-12-08T11:01:10;47.60;;;25.60;;
55800;SDS011;41730;51.960;20.158;2022-12-08T11:03:46;55.20;;;29.10;;
55800;SDS011;41730;51.960;20.158;2022-12-08T11:06:20;49.10;;;26.60;;
55800;SDS011;41730;51.960;20.158;2022-12-08T11:08:55;58.30;;;27.20;;
55800;SDS011;41730;51.960;20.158;2022-12-08T11:11:37;59.90;;;28.50;;
55800;SDS011;41730;51.960;20.158;2022-12-08T11:14:17;57.30;;;28.10;;
55800;SDS011;41730;51.960;20.158;2022-12-08T11:16:51;43.10;;;24.70;;
55800;SDS011;41730;51.960;20.158;2022-12-08T11:19:26;53.70;;;27.50;;
55800;SDS011;41730;51.960;20.158;2022-12-08T11:21:59;56.00;;;27.30;;
55800;SDS011;41730;51.960;20.158;2022-12-08T11:24:31;64.30;;;29.70;;
55800;SDS011;41730;51.960;20.158;2022-12-08T11:27:06;77.30;;;33.00;;
55800;SDS011;41730;51.960;20.158;2022-12-08T11:29:39;87.90;;;34.60;;
55800;SDS011;41730;51.960;20.158;2022-12-08T11:32:11;83.50;;;33.60;;
55800;SDS011;41730;51.960;20.158;2022-12-08T11:34:44;64.70;;;31.20;;
55800;SDS011;41730;51.960;20.158;2022-12-08T11:37:20;68.90;;;32.20;;
55800;SDS011;41730;51.960;20.158;2022-12-08T11:40:03;70.20;;;31.40;;
55800;SDS011;41730;51.960;20.158;2022-12-08T11:42:45;82.60;;;35.00;;
55800;SDS011;41730;51.960;20.158;2022-12-08T11:45:24;72.50;;;33.80;;
55800;SDS011;41730;51.960;20.158;2022-12-08T11:48:03;77.40;;;36.00;;
55800;SDS011;41730;51.960;20.158;2022-12-08T11:50:42;58.50;;;32.60;;
55800;SDS011;41730;51.960;20.158;2022-12-08T11:53:21;51.00;;;25.50;;
55800;SDS011;41730;51.960;20.158;2022-12-08T11:55:59;64.90;;;33.30;;
55800;SDS011;41730;51.960;20.158;2022-12-08T11:58:37;69.20;;;34.10;;
55800;SDS011;41730;51.960;20.158;2022-12-08T12:01:15;74.60;;;34.60;;
55800;SDS011;41730;51.960;20.158;2022-12-08T12:03:52;73.40;;;35.20;;
55800;SDS011;41730;51.960;20.158;2022-12-08T12:06:44;69.70;;;31.60;;
55800;SDS011;41730;51.960;20.158;2022-12-08T12:09:42;56.60;;;29.80;;
55800;SDS011;41730;51.960;20.158;2022-12-08T12:12:23;73.90;;;34.70;;
55800;SDS011;41730;51.960;20.158;2022-12-08T12:15:20;65.40;;;32.60;;
55800;SDS011;41730;51.960;20.158;2022-12-08T12:18:03;57.70;;;29.30;;
55800;SDS011;41730;51.960;20.158;2022-12-08T12:20:47;73.40;;;31.50;;
55800;SDS011;41730;51.960;20.158;2022-12-08T12:23:25;82.10;;;35.20;;
55800;SDS011;41730;51.960;20.158;2022-12-08T12:26:07;74.80;;;32.10;;
55800;SDS011;41730;51.960;20.158;2022-12-08T12:28:50;86.60;;;33.80;;
55800;SDS011;41730;51.960;20.158;2022-12-08T12:31:25;85.50;;;35.10;;
55800;SDS011;41730;51.960;20.158;2022-12-08T12:34:04;68.20;;;31.80;;
55800;SDS011;41730;51.960;20.158;2022-12-08T12:36:49;59.60;;;29.50;;
55800;SDS011;41730;51.960;20.158;2022-12-08T12:39:25;45.80;;;25.40;;
55800;SDS011;41730;51.960;20.158;2022-12-08T12:42:00;52.40;;;25.80;;
55800;SDS011;41730;51.960;20.158;2022-12-08T12:44:39;61.50;;;27.00;;
55800;SDS011;41730;51.960;20.158;2022-12-08T12:47:42;51.80;;;25.60;;
55800;SDS011;41730;51.960;20.158;2022-12-08T12:50:41;49.20;;;23.00;;
55800;SDS011;41730;51.960;20.158;2022-12-08T13:02:20;43.30;;;20.60;;
55800;SDS011;41730;51.960;20.158;2022-12-08T13:05:00;33.40;;;19.10;;
55800;SDS011;41730;51.960;20.158;2022-12-08T13:07:42;35.10;;;20.40;;
55800;SDS011;41730;51.960;20.158;2022-12-08T13:10:23;48.30;;;21.70;;
55800;SDS011;41730;51.960;20.158;2022-12-08T13:13:05;47.90;;;23.10;;
55800;SDS011;41730;51.960;20.158;2022-12-08T13:15:50;48.10;;;21.90;;
55800;SDS011;41730;51.960;20.158;2022-12-08T13:18:24;36.30;;;19.30;;
55800;SDS011;41730;51.960;20.158;2022-12-08T13:21:02;44.60;;;20.00;;
55800;SDS011;41730;51.960;20.158;2022-12-08T13:23:43;41.60;;;19.80;;
55800;SDS011;41730;51.960;20.158;2022-12-08T13:26:20;57.10;;;22.20;;
55800;SDS011;41730;51.960;20.158;2022-12-08T13:29:10;44.50;;;20.50;;
55800;SDS011;41730;51.960;20.158;2022-12-08T13:31:46;43.10;;;20.60;;
55800;SDS011;41730;51.960;20.158;2022-12-08T13:37:17;31.10;;;17.70;;
55800;SDS011;41730;51.960;20.158;2022-12-08T13:39:55;28.00;;;16.70;;
55800;SDS011;41730;51.960;20.158;2022-12-08T13:42:32;29.60;;;18.50;;
55800;SDS011;41730;51.960;20.158;2022-12-08T13:45:16;37.80;;;21.60;;
55800;SDS011;41730;51.960;20.158;2022-12-08T13:48:10;33.10;;;21.20;;
55800;SDS011;41730;51.960;20.158;2022-12-08T13:51:10;32.90;;;21.80;;
55800;SDS011;41730;51.960;20.158;2022-12-08T13:54:06;31.50;;;20.10;;
55800;SDS011;41730;51.960;20.158;2022-12-08T13:57:06;28.80;;;18.80;;
55800;SDS011;41730;51.960;20.158;2022-12-08T13:59:48;29.00;;;19.30;;
55800;SDS011;41730;51.960;20.158;2022-12-08T14:02:23;28.70;;;17.30;;
55800;SDS011;41730;51.960;20.158;2022-12-08T14:05:01;28.00;;;17.00;;
55800;SDS011;41730;51.960;20.158;2022-12-08T14:07:54;27.90;;;16.80;;
55800;SDS011;41730;51.960;20.158;2022-12-08T14:10:27;28.00;;;16.50;;
55800;SDS011;41730;51.960;20.158;2022-12-08T14:13:01;30.20;;;17.30;;
55800;SDS011;41730;51.960;20.158;2022-12-08T14:15:34;34.30;;;18.60;;
55800;SDS011;41730;51.960;20.158;2022-12-08T14:18:20;36.10;;;19.80;;
55800;SDS011;41730;51.960;20.158;2022-12-08T14:21:01;34.20;;;19.40;;
55800;SDS011;41730;51.960;20.158;2022-12-08T14:23:50;37.50;;;20.50;;
55800;SDS011;41730;51.960;20.158;2022-12-08T14:26:21;33.30;;;18.90;;
55800;SDS011;41730;51.960;20.158;2022-12-08T14:28:53;39.60;;;21.30;;
55800;SDS011;41730;51.960;20.158;2022-12-08T14:31:25;37.50;;;21.50;;
55800;SDS011;41730;51.960;20.158;2022-12-08T14:33:57;52.00;;;27.00;;
55800;SDS011;41730;51.960;20.158;2022-12-08T14:36:29;49.70;;;27.40;;
55800;SDS011;41730;51.960;20.158;2022-12-08T14:39:01;38.00;;;22.10;;
55800;SDS011;41730;51.960;20.158;2022-12-08T14:41:33;31.40;;;18.40;;
55800;SDS011;41730;51.960;20.158;2022-12-08T14:44:13;27.00;;;17.10;;
55800;SDS011;41730;51.960;20.158;2022-12-08T14:47:05;26.40;;;16.60;;
55800;SDS011;41730;51.960;20.158;2022-12-08T14:49:38;27.80;;;17.00;;
55800;SDS011;41730;51.960;20.158;2022-12-08T14:52:12;29.80;;;17.90;;
55800;SDS011;41730;51.960;20.158;2022-12-08T14:54:44;26.70;;;17.70;;
55800;SDS011;41730;51.960;20.158;2022-12-08T14:57:18;28.30;;;17.30;;
55800;SDS011;41730;51.960;20.158;2022-12-08T14:59:49;26.60;;;17.20;;
55800;SDS011;41730;51.960;20.158;2022-12-08T15:02:29;25.60;;;16.70;;
55800;SDS011;41730;51.960;20.158;2022-12-08T15:05:10;28.50;;;17.30;;
55800;SDS011;41730;51.960;20.158;2022-12-08T15:07:46;27.10;;;18.00;;
55800;SDS011;41730;51.960;20.158;2022-12-08T15:10:21;26.80;;;17.70;;
55800;SDS011;41730;51.960;20.158;2022-12-08T15:13:01;25.00;;;17.40;;
55800;SDS011;41730;51.960;20.158;2022-12-08T15:15:46;29.80;;;19.00;;
55800;SDS011;41730;51.960;20.158;2022-12-08T15:18:20;29.00;;;19.10;;
55800;SDS011;41730;51.960;20.158;2022-12-08T15:21:05;32.70;;;19.10;;
55800;SDS011;41730;51.960;20.158;2022-12-08T15:23:40;31.00;;;19.30;;
55800;SDS011;41730;51.960;20.158;2022-12-08T15:26:20;34.50;;;21.70;;
55800;SDS011;41730;51.960;20.158;2022-12-08T15:28:55;45.20;;;28.00;;
55800;SDS011;41730;51.960;20.158;2022-12-08T15:31:38;42.00;;;27.40;;
55800;SDS011;41730;51.960;20.158;2022-12-08T15:34:10;45.30;;;24.90;;
55800;SDS011;41730;51.960;20.158;2022-12-08T15:36:47;54.70;;;27.10;;
55800;SDS011;41730;51.960;20.158;2022-12-08T15:39:27;45.20;;;23.90;;
55800;SDS011;41730;51.960;20.158;2022-12-08T15:42:04;48.50;;;24.90;;
55800;SDS011;41730;51.960;20.158;2022-12-08T15:44:40;60.60;;;27.50;;